Time;durP1;ratioP1;P1;durP2;ratioP2;P2;SDS_P1;SDS_P2;PMS_P1;PMS_P2;Temp;Humidity;BMP_temperature;BMP_pressure;BME280_temperature;BME280_humidity;BME280_pressure;Samples;Min_cycle;Max_cycle;Signal;HPM_P1;HPM_P2
2023/10/10 00:00:23;;;;;;;9.27;4.38;;;12.50;99.90;;;11.77;100.00;101853.91;4184941;28;20032;-80
2023/10/10 00:02:28;;;;;;;9.05;3.90;;;12.40;99.90;;;11.73;100.00;101845.41;4187903;28;20025;-80
2023/10/10 00:04:32;;;;;;;5.88;3.78;;;12.40;99.90;;;11.74;100.00;101852.34;4187829;28;20017;-79
2023/10/10 00:06:38;;;;;;;6.80;4.28;;;12.40;99.90;;;11.73;100.00;101844.56;4203065;28;20090;-79
2023/10/10 00:08:41;;;;;;;5.97;3.50;;;12.40;99.90;;;11.75;100.00;101845.25;4187866;28;20086;-79
2023/10/10 00:10:49;;;;;;;6.95;4.15;;;12.40;99.90;;;11.75;100.00;101840.81;4187634;28;20025;-79
2023/10/10 00:12:49;;;;;;;6.85;3.97;;;12.40;99.90;;;11.73;100.00;101848.03;4187765;28;20450;-79
2023/10/10 00:14:50;;;;;;;6.97;4.00;;;12.40;99.90;;;11.70;100.00;101840.38;4186268;28;20033;-79
2023/10/10 00:16:54;;;;;;;7.57;4.10;;;12.40;99.90;;;11.71;100.00;101849.16;4174616;28;20052;-79
2023/10/10 00:18:56;;;;;;;5.75;4.70;;;12.30;99.90;;;11.69;100.00;101849.25;4187917;28;20515;-79
2023/10/10 00:23:10;;;;;;;6.10;3.45;;;12.30;99.90;;;11.66;100.00;101854.81;4187626;28;20029;-79
2023/10/10 00:25:12;;;;;;;5.25;3.60;;;12.30;99.90;;;11.61;100.00;101844.66;4187595;28;20021;-79
2023/10/10 00:27:14;;;;;;;6.22;3.63;;;12.30;99.90;;;11.59;100.00;101843.94;4187384;28;20108;-79
2023/10/10 00:29:18;;;;;;;6.35;4.05;;;12.20;99.90;;;11.56;100.00;101838.06;4187479;28;20021;-79
2023/10/10 00:31:20;;;;;;;;;;;12.20;99.90;;;11.50;100.00;101843.91;4187910;28;20550;-79
2023/10/10 00:33:22;;;;;;;7.70;3.75;;;12.20;99.90;;;11.49;100.00;101843.09;4185884;28;19983;-79
2023/10/10 00:35:27;;;;;;;7.03;3.92;;;12.20;99.90;;;11.51;100.00;101840.28;4179724;28;20453;-79
2023/10/10 00:37:34;;;;;;;6.25;3.55;;;12.20;99.90;;;11.48;100.00;101841.41;4187378;28;20029;-79
2023/10/10 00:39:36;;;;;;;8.52;4.03;;;12.20;99.90;;;11.47;100.00;101844.16;4187255;28;20058;-79
2023/10/10 00:41:52;;;;;;;6.53;4.07;;;12.20;99.90;;;11.43;100.00;101837.50;4185646;28;20049;-79
2023/10/10 00:43:53;;;;;;;5.80;3.22;;;12.20;99.90;;;11.42;100.00;101844.59;4186143;28;20021;-78
2023/10/10 00:45:55;;;;;;;6.32;3.72;;;12.10;99.90;;;11.38;100.00;101839.72;4187224;28;20132;-79
2023/10/10 00:47:56;;;;;;;6.85;3.97;;;12.10;99.90;;;11.34;100.00;101843.59;4187307;28;20021;-79
2023/10/10 00:49:59;;;;;;;6.38;3.97;;;12.00;99.90;;;11.27;100.00;101840.66;4187323;28;20053;-79
2023/10/10 00:52:06;;;;;;;11.02;4.50;;;12.00;99.90;;;11.25;100.00;101841.75;4185823;28;20036;-79
2023/10/10 00:54:26;;;;;;;7.28;4.55;;;11.90;99.90;;;11.22;100.00;101845.50;4185151;28;20031;-79
2023/10/10 00:56:30;;;;;;;6.88;3.88;;;11.90;99.90;;;11.22;100.00;101842.84;4177978;28;20029;-79
2023/10/10 00:58:36;;;;;;;8.40;4.03;;;11.90;99.90;;;11.15;100.00;101833.78;4187051;28;20071;-80
2023/10/10 01:00:44;;;;;;;6.53;3.67;;;11.90;99.90;;;11.09;100.00;101839.59;4184879;28;20504;-78
2023/10/10 01:02:45;;;;;;;5.47;3.80;;;11.80;99.90;;;11.10;100.00;101839.47;4185974;28;20040;-79
2023/10/10 01:04:57;;;;;;;5.82;3.28;;;11.80;99.90;;;11.04;100.00;101831.25;4186960;28;20036;-79
2023/10/10 01:06:58;;;;;;;7.03;4.18;;;11.80;99.90;;;11.04;100.00;101825.97;4170383;28;20025;-79
2023/10/10 01:09:20;;;;;;;9.55;4.22;;;11.70;99.90;;;11.05;100.00;101828.47;4185680;28;20025;-79
2023/10/10 01:11:20;;;;;;;6.72;4.07;;;11.70;99.90;;;11.05;100.00;101819.72;4186487;28;20041;-79
2023/10/10 01:13:21;;;;;;;11.85;4.20;;;11.70;99.90;;;11.07;100.00;101831.81;4185600;28;20025;-79
2023/10/10 01:15:25;;;;;;;7.68;4.20;;;11.70;99.90;;;11.08;100.00;101833.47;4182973;28;20024;-80
2023/10/10 01:17:29;;;;;;;5.72;3.55;;;11.70;99.90;;;11.11;100.00;101832.38;4178383;28;20029;-79
2023/10/10 01:19:34;;;;;;;7.93;4.00;;;11.70;99.90;;;11.12;100.00;101828.75;4202027;28;20025;-79
2023/10/10 01:21:50;;;;;;;8.40;4.18;;;11.70;99.90;;;11.13;100.00;101819.03;4186970;28;20055;-79
2023/10/10 01:23:52;;;;;;;8.55;4.60;;;11.70;99.90;;;11.09;100.00;101819.31;4186675;28;20029;-79
2023/10/10 01:25:55;;;;;;;8.13;4.55;;;11.70;99.90;;;11.09;100.00;101819.31;4186397;28;20028;-79
2023/10/10 01:28:33;;;;;;;7.28;3.90;;;11.70;99.90;;;11.07;100.00;101820.41;4185341;28;20026;-79
2023/10/10 01:32:53;;;;;;;8.68;4.18;;;11.70;99.90;;;11.06;100.00;101818.75;4184910;28;20049;-79
2023/10/10 01:34:54;;;;;;;8.10;3.85;;;11.70;99.90;;;11.03;100.00;101821.63;4186399;28;20500;-79
2023/10/10 01:36:57;;;;;;;6.78;3.67;;;11.70;99.90;;;11.02;100.00;101820.81;4186625;28;20119;-79
2023/10/10 01:38:59;;;;;;;6.63;4.10;;;11.70;99.90;;;11.01;100.00;101816.50;4186514;28;20441;-79
2023/10/10 01:41:15;;;;;;;6.85;4.10;;;11.70;99.90;;;11.00;100.00;101825.38;4201255;28;20511;-79
2023/10/10 01:43:17;;;;;;;8.77;4.78;;;11.60;99.90;;;10.99;100.00;101818.41;4200067;28;20056;-79
2023/10/10 01:45:19;;;;;;;6.65;4.07;;;11.70;99.90;;;10.99;100.00;101812.34;4186297;28;20116;-79
2023/10/10 01:47:26;;;;;;;7.95;4.15;;;11.60;99.90;;;11.00;100.00;101817.47;4184875;28;20361;-79
2023/10/10 01:49:29;;;;;;;5.88;3.83;;;11.70;99.90;;;10.92;100.00;101806.75;4186379;28;20071;-80
2023/10/10 01:51:33;;;;;;;5.90;3.95;;;11.60;99.90;;;10.90;100.00;101806.00;4185055;28;20109;-79
2023/10/10 01:53:40;;;;;;;7.25;4.05;;;11.60;99.90;;;10.84;100.00;101811.81;4181166;28;20021;-79
2023/10/10 01:55:42;;;;;;;7.40;4.38;;;11.50;99.90;;;10.82;100.00;101802.38;4184104;28;20033;-79
2023/10/10 01:57:43;;;;;;;7.88;3.67;;;11.50;99.90;;;10.79;100.00;101806.09;4186279;28;20025;-79
2023/10/10 01:59:44;;;;;;;6.45;3.38;;;11.50;99.90;;;10.70;100.00;101798.13;4185945;28;20480;-79
2023/10/10 02:01:45;;;;;;;7.47;4.03;;;11.40;99.90;;;10.66;100.00;101800.22;4184998;28;20025;-79
2023/10/10 02:03:48;;;;;;;7.15;3.42;;;11.40;99.90;;;10.61;100.00;101797.13;4184647;28;20036;-79
2023/10/10 02:05:55;;;;;;;8.07;3.80;;;11.30;99.90;;;10.59;100.00;101796.44;4186550;28;20037;-79
2023/10/10 02:07:57;;;;;;;6.35;3.78;;;11.30;99.90;;;10.57;100.00;101798.38;4186201;28;20056;-79
2023/10/10 02:10:14;;;;;;;8.88;4.22;;;11.30;99.90;;;10.54;100.00;101790.72;4185818;28;20025;-79
2023/10/10 02:12:22;;;;;;;6.72;4.07;;;11.30;99.90;;;10.53;100.00;101791.66;4189240;28;20027;-79
2023/10/10 02:14:25;;;;;;;6.82;4.50;;;11.20;99.90;;;10.51;100.00;101780.41;4178705;28;20117;-79
2023/10/10 02:16:35;;;;;;;5.78;3.80;;;11.20;99.90;;;10.53;100.00;101783.75;4172743;28;20032;-79
2023/10/10 02:18:44;;;;;;;6.95;5.05;;;11.20;99.90;;;10.55;100.00;101781.81;4173920;28;20044;-79
2023/10/10 02:22:47;;;;;;;6.93;4.13;;;11.20;99.90;;;10.55;100.00;101776.53;4184526;28;20056;-79
2023/10/10 02:25:08;;;;;;;8.07;4.10;;;11.20;99.90;;;10.55;100.00;101777.38;4184374;28;20029;-79
2023/10/10 02:27:13;;;;;;;7.35;4.10;;;11.20;99.90;;;10.49;100.00;101775.25;4185452;28;20460;-79
2023/10/10 02:29:17;;;;;;;;;;;11.20;99.90;;;10.40;100.00;101767.28;4201250;28;20028;-79
2023/10/10 02:31:19;;;;;;;11.35;4.63;;;11.20;99.90;;;10.39;100.00;101774.34;4185666;28;19951;-78
2023/10/10 02:35:27;;;;;;;7.47;4.05;;;11.10;99.90;;;10.34;100.00;101768.63;4184228;28;20516;-79
2023/10/10 02:39:32;;;;;;;6.85;4.10;;;11.00;99.90;;;10.31;100.00;101757.50;4185390;28;19955;-79
2023/10/10 02:41:38;;;;;;;9.75;4.18;;;11.10;99.90;;;10.32;100.00;101765.31;4185070;28;20124;-79
2023/10/10 02:45:59;;;;;;;5.85;3.83;;;11.00;99.90;;;10.33;100.00;101763.50;4185331;28;20032;-79
2023/10/10 02:48:06;;;;;;;5.70;4.18;;;11.00;99.90;;;10.32;100.00;101753.91;4185541;28;20036;-79
2023/10/10 02:50:12;;;;;;;6.55;4.25;;;11.00;99.90;;;10.30;100.00;101750.59;4185438;28;20104;-79
2023/10/10 02:52:15;;;;;;;11.00;4.88;;;11.00;99.90;;;10.31;100.00;101754.88;4185587;28;20471;-79
2023/10/10 02:54:28;;;;;;;7.43;3.85;;;11.00;99.90;;;10.29;100.00;101755.03;4185413;28;20028;-79
2023/10/10 02:56:29;;;;;;;7.60;4.15;;;11.00;99.90;;;10.30;100.00;101753.22;4182584;28;20499;-79
2023/10/10 02:58:38;;;;;;;6.65;3.92;;;11.00;99.90;;;10.29;100.00;101751.53;4183962;28;20110;-79
2023/10/10 03:00:39;;;;;;;7.63;3.97;;;11.00;99.90;;;10.27;100.00;101749.03;4184819;28;20064;-79
2023/10/10 03:02:49;;;;;;;5.97;3.78;;;11.00;99.90;;;10.23;100.00;101749.41;4185476;28;20023;-79
2023/10/10 03:07:05;;;;;;;6.60;3.92;;;10.90;99.90;;;10.19;100.00;101742.72;4184139;28;20025;-79
2023/10/10 03:09:13;;;;;;;7.70;4.60;;;10.90;99.90;;;10.15;100.00;101741.31;4185299;28;20476;-79
2023/10/10 03:11:39;;;;;;;8.25;4.38;;;10.90;99.90;;;10.16;100.00;101742.97;4182994;28;20025;-79
2023/10/10 03:13:42;;;;;;;5.88;3.65;;;10.90;99.90;;;10.15;100.00;101743.97;4184732;28;20086;-79
2023/10/10 03:15:51;;;;;;;6.43;3.63;;;10.90;99.90;;;10.12;100.00;101738.91;4185335;28;20465;-79
2023/10/10 03:20:13;;;;;;;6.10;4.05;;;10.80;99.90;;;10.05;100.00;101746.50;4183520;28;20021;-79
2023/10/10 03:25:04;;;;;;;6.13;3.92;;;10.70;99.90;;;9.91;100.00;101744.19;4186703;28;20048;-79
2023/10/10 03:29:27;;;;;;;7.90;3.75;;;10.60;99.90;;;9.87;100.00;101748.88;4188641;28;20115;-79
2023/10/10 03:31:35;;;;;;;6.45;4.60;;;10.60;99.90;;;9.84;100.00;101748.28;4171857;28;20039;-79
2023/10/10 03:36:00;;;;;;;6.15;4.15;;;10.50;99.90;;;9.82;100.00;101751.06;4187269;28;20082;-79
2023/10/10 03:38:26;;;;;;;6.45;4.20;;;10.50;99.90;;;9.81;100.00;101754.63;4191022;28;20040;-79
2023/10/10 03:40:26;;;;;;;6.90;4.00;;;10.50;99.90;;;9.80;100.00;101758.22;4181057;28;20076;-79
2023/10/10 05:25:24;;;;;;;8.00;4.63;;;10.40;99.90;;;9.64;100.00;101726.22;4186397;28;20121;-79
2023/10/10 05:27:29;;;;;;;7.80;4.65;;;10.40;99.90;;;9.65;100.00;101727.03;4185245;28;20036;-79
2023/10/10 05:29:33;;;;;;;7.32;4.53;;;10.40;99.90;;;9.61;100.00;101730.91;4183834;28;20504;-79
2023/10/10 05:31:35;;;;;;;5.25;3.97;;;10.40;99.90;;;9.56;100.00;101728.63;4186880;28;20484;-79
2023/10/10 05:33:37;;;;;;;6.28;4.03;;;10.30;99.90;;;9.44;100.00;101727.81;4185210;28;20033;-79
2023/10/10 05:35:47;;;;;;;6.00;4.22;;;10.20;99.90;;;9.42;100.00;101726.28;4180875;28;20100;-79
2023/10/10 05:37:48;;;;;;;7.30;4.32;;;10.20;99.90;;;9.36;100.00;101727.63;4184562;28;20087;-78
2023/10/10 05:39:56;;;;;;;7.78;5.35;;;10.10;99.90;;;9.35;100.00;101730.34;4174344;28;20071;-79
2023/10/10 05:41:57;;;;;;;6.18;4.00;;;10.10;99.90;;;9.30;100.00;101722.84;4185021;28;20536;-79
2023/10/10 05:43:59;;;;;;;6.82;4.15;;;10.10;99.90;;;9.30;100.00;101722.84;4184648;28;20025;-79
2023/10/10 05:46:03;;;;;;;6.53;3.83;;;10.10;99.90;;;9.27;100.00;101723.09;4185559;28;20049;-79
2023/10/10 05:48:07;;;;;;;9.98;4.35;;;10.00;99.90;;;9.21;100.00;101715.69;4186447;28;20936;-79
2023/10/10 05:50:10;;;;;;;7.80;4.25;;;10.00;99.90;;;9.17;100.00;101721.34;4184874;28;20047;-79
2023/10/10 05:52:12;;;;;;;5.95;4.05;;;9.90;99.90;;;9.14;100.00;101727.66;4185178;28;20025;-79
2023/10/10 05:54:13;;;;;;;8.13;4.32;;;9.90;99.90;;;9.12;100.00;101719.06;4173565;28;20040;-79
2023/10/10 05:56:14;;;;;;;5.63;4.20;;;9.90;99.90;;;9.09;100.00;101718.47;4185951;28;20025;-79
2023/10/10 05:58:15;;;;;;;11.85;5.00;;;9.80;99.90;;;9.11;100.00;101721.81;4186151;28;20025;-79
2023/10/10 06:00:16;;;;;;;7.50;4.60;;;9.90;99.90;;;9.11;100.00;101719.19;4184714;28;20421;-79
2023/10/10 06:02:17;;;;;;;7.10;4.80;;;9.80;99.90;;;9.09;100.00;101718.47;4186184;28;20040;-79
2023/10/10 06:04:18;;;;;;;8.75;4.32;;;9.80;99.90;;;9.09;100.00;101715.81;4185939;28;20025;-79
2023/10/10 06:06:18;;;;;;;6.88;3.83;;;9.80;99.90;;;9.11;100.00;101719.19;4186066;28;20020;-78
2023/10/10 06:08:20;;;;;;;6.53;4.35;;;9.80;99.90;;;9.09;100.00;101718.47;4185978;28;20044;-79
2023/10/10 06:10:28;;;;;;;7.20;4.32;;;9.80;99.90;;;9.05;100.00;101711.78;4184661;28;20064;-79
2023/10/10 06:12:30;;;;;;;9.80;4.93;;;9.80;99.90;;;9.04;100.00;101713.56;4176768;28;20036;-79
2023/10/10 06:14:31;;;;;;;8.00;5.00;;;9.80;99.90;;;9.09;100.00;101723.72;4185779;28;20072;-78
2023/10/10 06:16:32;;;;;;;7.57;4.75;;;9.80;99.90;;;9.10;100.00;101720.16;4187010;28;20024;-78
2023/10/10 06:18:33;;;;;;;8.85;4.82;;;9.80;99.90;;;9.11;100.00;101714.75;4185348;28;20025;-78
2023/10/10 06:20:41;;;;;;;9.52;5.05;;;9.80;99.90;;;9.13;100.00;101712.84;4185218;28;20444;-79
2023/10/10 06:22:45;;;;;;;7.30;4.90;;;9.80;99.90;;;9.14;100.00;101711.06;4183997;28;20512;-79
2023/10/10 06:24:45;;;;;;;8.35;5.22;;;9.90;99.90;;;9.18;100.00;101715.09;4183109;28;20504;-79
2023/10/10 06:26:47;;;;;;;7.47;4.35;;;9.90;99.90;;;9.18;100.00;101704.56;4185112;28;20029;-79
2023/10/10 06:28:53;;;;;;;10.88;4.82;;;9.90;99.90;;;9.22;100.00;101709.47;4184587;28;20033;-79
2023/10/10 06:30:54;;;;;;;8.27;4.47;;;10.00;99.90;;;9.21;100.00;101706.94;4181031;28;20139;-79
2023/10/10 06:33:09;;;;;;;6.50;4.35;;;10.00;99.90;;;9.21;100.00;101715.69;4184319;28;20029;-80
2023/10/10 06:37:17;;;;;;;5.70;4.32;;;9.90;99.90;;;9.20;100.00;101707.94;4183652;28;20025;-79
2023/10/10 06:39:18;;;;;;;8.73;4.70;;;10.00;99.90;;;9.23;100.00;101720.81;4183511;28;20029;-80
2023/10/10 06:41:22;;;;;;;7.05;4.50;;;9.90;99.90;;;9.26;100.00;101715.31;4185055;28;20048;-80
2023/10/10 06:43:23;;;;;;;6.22;4.20;;;10.00;99.90;;;9.25;100.00;101717.13;4185417;28;20057;-79
2023/10/10 06:45:26;;;;;;;7.60;4.20;;;10.00;99.90;;;9.29;100.00;101715.06;4184230;28;20037;-80
2023/10/10 06:47:28;;;;;;;6.15;3.85;;;10.00;99.90;;;9.32;100.00;101720.91;4183947;28;20056;-80
2023/10/10 06:49:43;;;;;;;6.82;4.70;;;10.00;99.90;;;9.36;100.00;101721.50;4173935;28;20511;-80
2023/10/10 06:51:44;;;;;;;8.82;5.13;;;10.10;99.90;;;9.36;100.00;101718.88;4184365;28;20516;-79
2023/10/10 06:53:45;;;;;;;7.65;5.07;;;10.10;99.90;;;9.39;100.00;101726.53;4184191;28;20041;-79
2023/10/10 06:55:47;;;;;;;7.93;4.75;;;10.10;99.90;;;9.42;100.00;101726.28;4185281;28;20024;-80
2023/10/10 06:58:01;;;;;;;8.50;5.30;;;10.10;99.90;;;9.43;100.00;101722.69;4184473;28;20020;-80
2023/10/10 07:00:20;;;;;;;10.48;4.80;;;10.20;99.90;;;9.46;100.00;101722.44;4185326;28;20052;-80
2023/10/10 07:02:21;;;;;;;7.03;4.95;;;10.20;99.90;;;9.51;100.00;101728.16;4170540;28;20055;-81
2023/10/10 07:04:23;;;;;;;8.10;4.45;;;10.20;99.90;;;9.56;100.00;101728.63;4184093;28;20075;-81
2023/10/10 07:06:24;;;;;;;10.48;5.97;;;10.30;99.90;;;9.60;100.00;101727.41;4178547;28;20461;-81
2023/10/10 07:08:25;;;;;;;8.52;5.13;;;10.30;99.90;;;9.67;100.00;101731.22;4183962;28;20515;-80
2023/10/10 07:10:36;;;;;;;6.68;4.72;;;10.40;99.90;;;9.73;100.00;101741.28;4172822;28;20043;-81
2023/10/10 07:12:38;;;;;;;8.68;4.80;;;10.40;99.90;;;9.75;100.00;101739.34;4184962;28;20041;-83
2023/10/10 07:14:46;;;;;;;7.63;4.50;;;10.50;99.90;;;9.78;100.00;101744.34;4185239;28;20021;-82
2023/10/10 07:16:47;;;;;;;7.47;4.78;;;10.50;99.90;;;9.83;100.00;101742.16;4183038;28;20055;-80
2023/10/10 07:18:56;;;;;;;8.68;5.25;;;10.50;99.90;;;9.87;100.00;101730.41;4183996;28;20404;-81
2023/10/10 07:21:04;;;;;;;6.28;4.63;;;10.60;99.90;;;9.95;100.00;101743.78;4177490;28;20083;-81
2023/10/10 07:23:07;;;;;;;6.65;3.85;;;10.60;99.90;;;9.99;100.00;101733.81;4183046;28;20059;-81
2023/10/10 07:25:25;;;;;;;6.00;4.43;;;10.70;99.90;;;10.05;100.00;101735.09;4184993;28;20026;-81
2023/10/10 07:27:30;;;;;;;6.43;4.60;;;10.70;99.90;;;10.12;100.00;101737.13;4181825;28;20033;-81
2023/10/10 07:29:57;;;;;;;6.68;4.43;;;10.80;99.90;;;10.18;100.00;101741.06;4182488;28;20017;-79
2023/10/10 07:32:04;;;;;;;6.50;4.10;;;10.90;99.90;;;10.22;100.00;101737.19;4184459;28;20033;-81
2023/10/10 07:34:15;;;;;;;5.80;4.00;;;10.90;99.90;;;10.27;100.00;101740.28;4181235;28;20202;-81
2023/10/10 07:36:15;;;;;;;7.13;4.65;;;11.00;99.90;;;10.33;100.00;101739.78;4181634;28;20025;-81
2023/10/10 07:38:16;;;;;;;6.43;4.15;;;11.00;99.90;;;10.38;100.00;101743.69;4188173;28;20051;-82
2023/10/10 07:42:27;;;;;;;7.90;5.80;;;11.20;99.90;;;10.51;100.00;101744.31;4177146;28;20021;-82
2023/10/10 07:44:30;;;;;;;10.05;5.88;;;11.20;99.90;;;10.58;100.00;101749.88;4175599;28;20033;-81
2023/10/10 07:46:35;;;;;;;9.80;5.85;;;11.30;99.90;;;10.63;100.00;101742.44;4178294;28;20056;-81
2023/10/10 07:50:47;;;;;;;5.90;3.88;;;11.40;99.90;;;10.77;100.00;101754.44;4178451;28;20497;-81
2023/10/10 07:52:49;;;;;;;12.40;5.65;;;11.40;99.90;;;10.80;100.00;101755.00;4180305;28;20428;-82
2023/10/10 07:54:54;;;;;;;10.65;6.15;;;11.50;99.90;;;10.85;100.00;101750.16;4181811;28;20025;-83
2023/10/10 07:57:03;;;;;;;10.48;5.22;;;11.60;99.90;;;10.96;100.00;101757.97;4181844;28;20032;-83
2023/10/10 07:59:05;;;;;;;7.53;4.90;;;11.60;99.90;;;11.02;100.00;101754.78;4171896;28;20049;-82
2023/10/10 08:01:09;;;;;;;9.50;5.20;;;11.70;99.90;;;11.08;100.00;101756.06;4184865;28;20062;-81
2023/10/10 08:03:20;;;;;;;7.05;4.90;;;11.80;99.90;;;11.15;100.00;101759.00;4184791;28;20029;-81
2023/10/10 08:05:21;;;;;;;7.15;5.18;;;11.90;99.90;;;11.24;100.00;101752.91;4184537;28;20122;-82
2023/10/10 08:07:23;;;;;;;8.18;5.60;;;12.00;99.90;;;11.33;100.00;101752.09;4184734;28;20025;-82
2023/10/10 08:09:24;;;;;;;8.35;5.55;;;12.00;99.90;;;11.43;100.00;101750.31;4186289;28;20049;-81
2023/10/10 08:11:35;;;;;;;9.73;5.68;;;12.10;99.90;;;11.53;100.00;101748.50;4186619;28;20607;-80
2023/10/10 08:13:36;;;;;;;9.80;5.72;;;12.20;99.90;;;11.66;100.00;101755.22;4187417;28;20025;-80
2023/10/10 08:17:58;;;;;;;6.13;4.47;;;12.50;99.90;;;11.85;100.00;101749.13;4184819;28;20072;-80
2023/10/10 08:20:31;;;;;;;6.40;4.60;;;12.60;99.90;;;11.91;100.00;101745.94;4186482;28;20497;-80
2023/10/10 08:22:25;;;;;;;8.02;4.72;;;12.60;99.90;;;11.97;100.00;101745.38;4187680;28;20087;-81
2023/10/10 08:24:26;;;;;;;8.57;5.07;;;12.70;99.90;;;12.06;100.00;101743.69;4187704;28;20029;-80
2023/10/10 08:26:29;;;;;;;8.15;5.13;;;12.70;99.90;;;12.13;100.00;101742.97;4187157;28;20024;-81
2023/10/10 08:28:29;;;;;;;11.32;4.82;;;12.90;99.90;;;12.25;100.00;101756.03;4187669;28;20437;-81
2023/10/10 08:30:32;;;;;;;9.70;5.38;;;12.90;99.90;;;12.31;100.00;101750.16;4187531;28;20058;-81
2023/10/10 08:32:32;;;;;;;8.18;5.35;;;13.00;99.90;;;12.36;100.00;101754.06;4169773;28;20036;-79
2023/10/10 08:34:38;;;;;;;8.75;5.03;;;13.00;99.90;;;12.42;100.00;101757.97;4185978;28;20404;-80
2023/10/10 08:36:43;;;;;;;6.35;4.60;;;13.10;99.90;;;12.47;100.00;101747.78;4170105;28;20495;-81
2023/10/10 08:38:44;;;;;;;6.97;5.13;;;13.20;99.90;;;12.56;100.00;101749.56;4186005;28;20451;-80
2023/10/10 08:41:01;;;;;;;8.60;4.72;;;13.30;99.90;;;12.66;100.00;101747.72;4183248;28;20049;-80
2023/10/10 08:43:03;;;;;;;8.93;5.18;;;13.40;99.90;;;12.77;100.00;101753.66;4185307;28;20032;-79
2023/10/10 08:45:06;;;;;;;9.25;5.40;;;13.50;99.90;;;12.88;100.00;101752.63;4169477;28;20037;-79
2023/10/10 08:47:19;;;;;;;17.02;6.30;;;13.60;99.90;;;13.04;100.00;101755.50;4181226;28;20562;-78
2023/10/10 08:49:20;;;;;;;43.65;8.07;;;13.70;99.90;;;13.16;100.00;101751.69;4185954;28;20033;-77
